Historique des mesures à Cassis (13260), France
Quotidien Résumé Avril 20, 2018 Unités:  Métrique    US   Métrique/US
« Précédent (Jour)
Suivant (Jour) »
Quotidien Hebdomadaire Mensuel Annuel Période au choix
  Maximum: Minimum: Moyenne:
Température: TemperatureC °C 16.9 °C 19.7 °C
Point de rosée: DewpointC °C 7.2 °C 9.2 °C
Humidité: Humidity % 42 % 48 %
Vitesse du vent: 0 km/h 0 km/h 3.1 km/h
Rafales: 0 km/h - -
Vent:- - SSE
Pression: PressurehPa hPa 1017.5 hPa -
Précipitations: 0.0 mm    
Historical Graphs
 
 
Mesures pour : Avril 20, 2018
Heure Temperature Point de rosée Pression Vent Vitesse du vent Rafales Humidité Pluie (par heure) Conditions
TemperatureC °C DewpointC °C PressurehPa hPa Calm     Humidity % HourlyPrecipMM mm SoftwareType W/m2
00:11 18.2 °C 8.2 °C 1020.5 hPa Calm     52 % 0.0 mm open2300-1.11 W/m2
01:11 18.1 °C 8.3 °C 1020.5 hPa Calm   3.4 km/h 53 % 0.0 mm open2300-1.11 W/m2
02:11 17.9 °C 8.1 °C 1019.9 hPa Calm     53 % 0.0 mm open2300-1.11 W/m2
03:11 18.1 °C 7.8 °C 1019.5 hPa North 4.7 km/h 6.9 km/h 51 % 0.0 mm open2300-1.11 W/m2
04:10 17.9 °C 7.6 °C 1019.5 hPa North 8 km/h 10.3 km/h 51 % 0.0 mm open2300-1.11 W/m2
05:10 17.8 °C 7.5 °C 1019.2 hPa North 4.2 km/h 6.4 km/h 51 % 0.0 mm open2300-1.11 W/m2
06:10 18.1 °C 7.5 °C 1019.2 hPa North 3.4 km/h 3.4 km/h 50 % 0.0 mm open2300-1.11 W/m2
07:10 16.9 °C 7.2 °C 1019.2 hPa Calm   4.2 km/h 53 % 0.0 mm open2300-1.11 W/m2
08:10 18.1 °C 8.6 °C 1019.9 hPa Calm     54 % 0.0 mm open2300-1.11 W/m2
09:10 18.5 °C 9.8 °C 1019.9 hPa SE 5.6 km/h 6.4 km/h 57 % 0.0 mm open2300-1.11 W/m2
10:10 18.7 °C 10.3 °C 1019.9 hPa East 4.2 km/h 5.6 km/h 58 % 0.0 mm open2300-1.11 W/m2
11:10 22.1 °C 12.3 °C 1020.2 hPa Calm   6.4 km/h 54 % 0.0 mm open2300-1.11 W/m2
12:10 24.8 °C 12.3 °C 1020.2 hPa SE 2.3 km/h 6.4 km/h 46 % 0.0 mm open2300-1.11 W/m2
13:10 25.2 °C 12.1 °C 1019.9 hPa SSE 5.6 km/h 5.6 km/h 44 % 0.0 mm open2300-1.11 W/m2
14:12 25.0 °C 11.2 °C 1019.5 hPa South 7.6 km/h 10.3 km/h 42 % 0.0 mm open2300-1.11 W/m2
15:12 24.6 °C 11.2 °C 1019.2 hPa SSW 6.4 km/h 6.4 km/h 43 % 0.0 mm open2300-1.11 W/m2
16:12 24.6 °C 11.2 °C 1018.5 hPa South 3.4 km/h 16.3 km/h 43 % 0.0 mm open2300-1.11 W/m2
17:11 24.4 °C 11.0 °C 1017.8 hPa SSE 6.9 km/h 6.9 km/h 43 % 0.0 mm open2300-1.11 W/m2
18:11 23.8 °C 10.8 °C 1017.8 hPa SSE 2.9 km/h 10.3 km/h 44 % 0.0 mm open2300-1.11 W/m2
19:11 22.4 °C 10.1 °C 1017.8 hPa Calm     46 % 0.0 mm open2300-1.11 W/m2
20:11 21.4 °C 9.9 °C 1017.5 hPa Calm     48 % 0.0 mm open2300-1.11 W/m2
21:11 19.5 °C 9.5 °C 1017.8 hPa NNW 3.4 km/h 4.2 km/h 52 % 0.0 mm open2300-1.11 W/m2
22:11 19.0 °C 8.7 °C 1017.8 hPa NNW 2.9 km/h 4.2 km/h 51 % 0.0 mm open2300-1.11 W/m2
23:12 18.4 °C 8.3 °C 1017.5 hPa NNW 4.7 km/h 14 km/h 52 % 0.0 mm open2300-1.11 W/m2
Observations météo à CASSIS
WU-History script by Weather Underground - 1 mb